Aviation Digital Data Service (ADDS)

Output produced by TAFs form (1050 UTC 16 July 2018)
found at http://www.aviationweather.gov/adds/tafs/
 
METAR text: ZYTL 161030Z 11004MPS 9999 FEW040 27/24 Q1008 NOSIG
Conditions at: ZYTL (DALIAN/DAIREN/LU, CN) observed 1030 UTC 16 July 2018
Temperature: 27.0°C (81°F)
Dewpoint: 24.0°C (75°F) [RH = 84%]
Pressure (altimeter): 29.76 inches Hg (1008.0 mb)
Winds: from the ESE (110 degrees) at 9 MPH (8 knots; 4.2 m/s)
Visibility: 6 or more miles (10+ km)
Ceiling: at least 12,000 feet AGL
Clouds: few clouds at 4000 feet AGL
Weather: no significant weather observed at this time

Forecast for: ZYTL (DALIAN/DAIREN/LU, CN)
Text: TAF ZYTL 160912Z 1612/1712 16004G10MPS 6000 SCT026 TX27/1612Z TN24/1620Z
Forecast period: 1200 UTC 16 July 2018 to 1200 UTC 17 July 2018
Forecast type: FROM: standard forecast or significant change
Winds: from the SSE (160 degrees) at 9 MPH (8 knots; 4.2 m/s)
gusting to 22 MPH (19 knots; 9.9 m/s)
Visibility: 4 miles (6 km)
Clouds: scattered clouds at 2600 feet AGL
Weather: no significant weather forecast for this period